サンフランシスコ の空港の天気 - METARとTAF

サンフランシスコ国際空港 ( KSFO / SFO ) - アメリカ カリフォルニア州サンマテオ郡
飛行場実況気象(Metar)
観測時間06/17 16:56 PDT (06/17 23:56 UTC)
風向・風速西北西 8m/s
視程10km以上
天気現象
少しの雲 雲底高度 270m
全天の4割程度の雲 雲底高度 5490m
気温19.4℃
湿度61%
気圧1009.7hPa
METARKSFO 172356Z 30015KT 10SM FEW009 SCT180 19/12 A2982 RMK AO2 SLP097 T01940117 10244 20183 56011
過去の天気等 Google飛行場航空写真 Wunderground天気予報

過去48時間のMETAR

飛行場予報(TAF)
発表時間: 6/17 16:39 PDT (6/17 23:39 UTC)
予報対象時間: 17日17時 PDT ~ 18日23時 PDT
風向・風速西北西 7m/s
視程10km以上
少しの雲 雲底高度 270m
少しの雲 雲底高度 5490m
17日21時 PDT から
風向・風速西 5m/s
視程10km以上
少しの雲 雲底高度 300m
18日2時 PDT から
風向・風速西 3m/s
視程10km以上
少しの雲 雲底高度 240m
18日6時 PDT から
風向・風速西北西 4m/s
視程10km以上
全天を覆う雲 雲底高度 370m
18日8時 PDT から
風向・風速東 3m/s
視程10km以上
少しの雲 雲底高度 240m
全天の4割程度の雲 雲底高度 370m
18日10時 PDT から
風向・風速北北東 4m/s
視程10km以上
なし
18日14時 PDT から
風向・風速西北西 7m/s
視程10km以上
なし
18日21時 PDT から
風向・風速西 5m/s
視程10km以上
少しの雲 雲底高度 300m
KSFO 172339Z 1800/1906 30013KT P6SM FEW009 FEW180
FM180400 28010KT P6SM FEW010
FM180900 28006KT P6SM FEW008
FM181300 30008KT P6SM OVC012
FM181530 09006KT P6SM FEW008 SCT012
FM181700 03008KT P6SM SKC
FM182100 30013KT P6SM SKC
FM190400 28010KT P6SM FEW010